Terminal Aerodrome Forecast
Issued by NWS

Home | Current Version | Previous Version | Text Only | Print | Product List | Glossary On
Versions: 1 2 3 4 5 6 7 8 9 10 11 12 13 14
000
FTUS41 KAKQ 232338
TAFPHF
TAF
KPHF 232338Z 2400/2424 12005KT P6SM SKC
     FM241000 18005KT P6SM SKC
     FM241500 21011G18KT P6SM SCT200
     FM241900 21013G23KT P6SM SCT200=

USA.gov is the U.S. government's official web portal to all federal, state and local government web resources and services.